METAR Data
IDs: Format: Raw Decoded Include TAF

Data at: 0216 UTC 25 Feb 2021

LSZG 250150Z AUTO 00000KT 0150 FG VV001 01/01 Q1032 REFZDZ